logo
Search for airport 
image banner adimage banner adimage banner ad
image banner ad

YBSR - Blackstone Airport

Located in Ngaanyatjarra-Giles, Australia

ICAO - YBSR, IATA -

Data provided by Airmate  

General information

Coordinates: S25°59'0" E128°16'50"
Elevation is 1802 feet MSL.
Magnetic variation is 3° East
View others Airports in (unassigned)

Operational data

Special qualification required
Current time UTC:
Current local time:
Weather at : - ( 0 km )
METAR: LWSK 191650Z 31004KT 230V360 9999 SCT080 12/05 Q1009 NOSIG
View NOTAMs / SUP AIP / TFR affecting this airport [VIEW]
Communications frequencies: [VIEW]

Runways:

RWY identifierQFULength (ft)Width (ft)SurfaceLDA (ft)
10105°523854DIRT
28285°523854DIRT

Airport contact information

Address: Ngaanyatjarra-Giles Australia

Satellite view of YBSR